UTP weather

U-Tapao International Airport
Rayong, Rayong Province, Thailand

Public forecast

Using degrees Celsius for public forecast. Weather courtesy of forecast.io.

Current aviation weather report (METAR) for U-Tapao International Airport

Retrieved 2020/04/03 00:30 UTC (11 minutes ago):

VTBU 030030Z 15007KT 9999 FEW020 30/24 Q1012 NOSIG

Aviation forecast (TAF) for U-Tapao International Airport

Retrieved 2020-04-03 00:37 UTC (4 minutes ago):

TAF VTBU 022300Z 0300/0324 18010KT 9999 FEW020